Time;durP1;ratioP1;P1;durP2;ratioP2;P2;SDS_P1;SDS_P2;PMS_P1;PMS_P2;Temp;Humidity;BMP_temperature;BMP_pressure;BME280_temperature;BME280_humidity;BME280_pressure;Samples;Min_cycle;Max_cycle;Signal;HPM_P1;HPM_P2
2024/03/16 00:00:14;;;;;;;10.30;2.77;;;;;10.90;100570.00;;;;9966018;29;20229;-82
2024/03/16 00:05:15;;;;;;;10.93;3.00;;;;;10.90;100566.00;;;;9976889;29;20221;-81
2024/03/16 00:10:16;;;;;;;13.60;3.67;;;;;10.80;100576.00;;;;10013025;29;20220;-83
2024/03/16 00:15:17;;;;;;;9.03;2.73;;;;;10.70;100583.00;;;;9967813;29;20229;-81
2024/03/16 00:20:19;;;;;;;12.17;2.80;;;;;10.60;100583.00;;;;9985272;29;20241;-80
2024/03/16 00:25:20;;;;;;;9.73;2.67;;;;;10.50;100581.00;;;;9967188;29;20255;-78
2024/03/16 00:30:23;;;;;;;12.13;3.20;;;;;10.50;100577.00;;;;9959621;29;20238;-79
2024/03/16 00:35:24;;;;;;;11.57;3.53;;;;;10.40;100581.00;;;;9963904;29;20233;-80
2024/03/16 00:40:25;;;;;;;8.07;2.87;;;;;10.40;100594.00;;;;9953446;29;20265;-81
2024/03/16 00:45:26;;;;;;;9.93;3.77;;;;;10.40;100591.00;;;;9967905;29;20236;-81
2024/03/16 00:50:28;;;;;;;6.73;3.00;;;;;10.30;100588.00;;;;9968468;29;20238;-83
2024/03/16 00:55:29;;;;;;;8.80;3.37;;;;;10.30;100599.00;;;;9984202;29;20237;-82
2024/03/16 01:00:31;;;;;;;11.70;3.80;;;;;10.30;100609.00;;;;9968233;29;20291;-81
2024/03/16 01:05:32;;;;;;;8.93;3.33;;;;;10.30;100604.00;;;;9999968;29;20236;-81
2024/03/16 01:10:33;;;;;;;12.00;3.87;;;;;10.20;100607.00;;;;9959997;29;20693;-81
2024/03/16 01:15:35;;;;;;;15.97;3.93;;;;;10.20;100613.00;;;;9998180;29;20316;-81
2024/03/16 01:20:36;;;;;;;8.30;3.00;;;;;10.20;100612.00;;;;9973299;29;20241;-82
2024/03/16 01:25:37;;;;;;;11.43;3.23;;;;;10.20;100622.00;;;;9977544;29;20252;-80
2024/03/16 01:30:38;;;;;;;11.20;3.33;;;;;10.20;100627.00;;;;9952166;29;20742;-85
2024/03/16 01:35:39;;;;;;;14.60;3.63;;;;;10.20;100632.00;;;;9975050;29;20277;-85
2024/03/16 01:40:41;;;;;;;13.20;3.13;;;;;10.30;100633.00;;;;9961566;29;20346;-83
2024/03/16 01:45:43;;;;;;;12.23;3.13;;;;;10.30;100630.00;;;;9960868;29;20234;-83
2024/03/16 01:50:44;;;;;;;11.17;3.17;;;;;10.30;100635.00;;;;9983920;29;20237;-84
2024/03/16 01:55:45;;;;;;;11.67;3.70;;;;;10.30;100647.00;;;;9966001;29;20249;-84
2024/03/16 02:00:47;;;;;;;8.20;3.20;;;;;10.40;100640.00;;;;9963651;29;20229;-84
2024/03/16 02:05:48;;;;;;;13.57;3.53;;;;;10.40;100654.00;;;;9979910;29;20228;-88
2024/03/16 02:10:49;;;;;;;9.23;3.30;;;;;10.30;100659.00;;;;9984922;29;20237;-86
2024/03/16 02:15:50;;;;;;;14.93;4.23;;;;;10.20;100653.00;;;;10000271;29;20234;-87
2024/03/16 02:20:52;;;;;;;9.00;3.30;;;;;10.20;100661.00;;;;9989257;29;20332;-85
2024/03/16 02:25:53;;;;;;;12.07;4.40;;;;;10.20;100668.00;;;;9983074;29;20225;-86
2024/03/16 02:30:55;;;;;;;10.93;4.03;;;;;10.20;100687.00;;;;10005645;29;20244;-85
2024/03/16 02:35:57;;;;;;;8.83;3.50;;;;;10.20;100680.00;;;;9977308;29;20230;-86
2024/03/16 02:40:58;;;;;;;9.37;4.50;;;;;10.10;100692.00;;;;9971932;29;20249;-82
2024/03/16 02:45:59;;;;;;;9.77;5.57;;;;;10.10;100686.00;;;;9967095;29;20249;-81
2024/03/16 02:51:01;;;;;;;12.13;5.90;;;;;10.10;100694.00;;;;9969515;29;20230;-81
2024/03/16 02:56:03;;;;;;;16.73;6.57;;;;;10.10;100706.00;;;;9975745;29;20722;-81
2024/03/16 03:01:04;;;;;;;18.50;7.80;;;;;10.10;100720.00;;;;9976178;29;20226;-81
2024/03/16 03:06:05;;;;;;;14.60;8.00;;;;;10.10;100716.00;;;;9942560;29;20934;-81
2024/03/16 03:11:08;;;;;;;15.80;8.70;;;;;10.10;100737.00;;;;9968172;29;20240;-81
2024/03/16 03:16:09;;;;;;;20.30;9.13;;;;;10.10;100737.00;;;;9972543;29;20321;-80
2024/03/16 03:21:11;;;;;;;15.00;7.77;;;;;10.10;100766.00;;;;9984240;29;20225;-82
2024/03/16 03:26:13;;;;;;;5.27;3.43;;;;;9.40;100790.00;;;;9961355;29;20249;-81
2024/03/16 03:31:14;;;;;;;10.93;5.13;;;;;9.00;100791.00;;;;9966974;29;20245;-80
2024/03/16 03:36:16;;;;;;;10.90;5.40;;;;;8.80;100797.00;;;;9972839;29;20344;-81
2024/03/16 03:41:18;;;;;;;8.10;4.87;;;;;8.60;100812.00;;;;9947577;29;20249;-81
2024/03/16 03:46:39;;;;;;;9.80;5.93;;;;;8.50;100817.00;;;;9958786;29;20234;-81
2024/03/16 03:51:40;;;;;;;11.67;6.53;;;;;8.40;100820.00;;;;9960402;29;20308;-81
2024/03/16 03:56:41;;;;;;;10.13;5.73;;;;;8.30;100833.00;;;;9993082;29;20229;-81
2024/03/16 04:01:42;;;;;;;10.07;5.17;;;;;8.20;100844.00;;;;9981097;29;20377;-81
2024/03/16 04:06:45;;;;;;;9.63;5.93;;;;;8.10;100860.00;;;;9938190;29;20264;-81
2024/03/16 04:11:46;;;;;;;11.03;6.33;;;;;8.10;100873.00;;;;9946407;29;20366;-81
2024/03/16 04:16:48;;;;;;;15.07;7.03;;;;;8.00;100895.00;;;;9971276;29;20240;-81
2024/03/16 04:21:50;;;;;;;13.23;7.27;;;;;8.00;100902.00;;;;9966857;29;20221;-80
2024/03/16 04:26:51;;;;;;;15.57;7.37;;;;;8.00;100909.00;;;;9975775;29;20234;-81
2024/03/16 04:31:52;;;;;;;18.80;8.70;;;;;8.00;100907.00;;;;9950341;29;20931;-80
2024/03/16 04:36:53;;;;;;;17.73;9.13;;;;;8.00;100928.00;;;;9979429;29;20270;-81
2024/03/16 04:41:54;;;;;;;16.20;9.33;;;;;8.00;100938.00;;;;9955904;29;20237;-81
2024/03/16 04:46:55;;;;;;;16.83;11.53;;;;;8.00;100950.00;;;;9967376;29;20963;-81
2024/03/16 04:51:57;;;;;;;20.90;12.70;;;;;8.10;100958.00;;;;9943936;29;20696;-81
2024/03/16 04:56:58;;;;;;;15.00;9.10;;;;;8.00;100955.00;;;;9942928;29;20238;-81
2024/03/16 05:01:59;;;;;;;19.93;10.30;;;;;7.90;100951.00;;;;9964134;29;20265;-81
2024/03/16 05:07:01;;;;;;;15.70;9.17;;;;;7.80;100970.00;;;;9962658;29;20316;-81
2024/03/16 05:12:03;;;;;;;17.77;7.83;;;;;7.80;100985.00;;;;9962709;29;20240;-79
2024/03/16 05:17:04;;;;;;;17.37;8.87;;;;;7.80;100987.00;;;;9949806;29;20233;-79
2024/03/16 05:22:05;;;;;;;19.03;9.63;;;;;7.80;101000.00;;;;9990551;29;20245;-80
2024/03/16 05:27:10;;;;;;;14.40;8.90;;;;;7.80;101015.00;;;;9986218;29;20241;-79
2024/03/16 05:32:11;;;;;;;12.10;8.73;;;;;7.80;101037.00;;;;9987970;29;20299;-79
2024/03/16 05:37:12;;;;;;;18.33;9.37;;;;;7.80;101042.00;;;;9998515;29;20225;-78
2024/03/16 05:42:13;;;;;;;14.63;7.50;;;;;7.80;101054.00;;;;9962840;29;20305;-79
2024/03/16 05:47:14;;;;;;;12.97;7.53;;;;;7.80;101069.00;;;;9950688;29;20257;-78
2024/03/16 05:52:15;;;;;;;11.40;6.30;;;;;7.80;101079.00;;;;9966168;29;20236;-78
2024/03/16 05:57:17;;;;;;;15.73;7.20;;;;;7.80;101092.00;;;;9957900;29;20260;-79
2024/03/16 06:02:18;;;;;;;14.00;6.87;;;;;7.80;101105.00;;;;9972548;29;20393;-79
2024/03/16 06:07:20;;;;;;;17.53;7.23;;;;;7.80;101123.00;;;;9967790;29;20233;-78
2024/03/16 06:12:21;;;;;;;11.50;7.17;;;;;7.80;101121.00;;;;9980120;29;20230;-79
2024/03/16 06:17:23;;;;;;;17.73;8.40;;;;;7.90;101147.00;;;;9944727;29;20252;-78
2024/03/16 06:22:24;;;;;;;14.30;7.33;;;;;7.80;101160.00;;;;9951974;29;20260;-79
2024/03/16 06:27:25;;;;;;;18.57;7.47;;;;;7.80;101165.00;;;;9944089;29;20237;-79
2024/03/16 06:32:28;;;;;;;17.07;6.60;;;;;7.80;101178.00;;;;9982903;29;20229;-80
2024/03/16 06:37:29;;;;;;;12.87;5.53;;;;;7.80;101182.00;;;;9962898;29;20229;-80
2024/03/16 06:42:31;;;;;;;16.13;5.00;;;;;7.70;101187.00;;;;9955195;29;20230;-80
2024/03/16 06:47:32;;;;;;;7.80;4.07;;;;;7.70;101186.00;;;;9990450;29;20241;-81
2024/03/16 06:52:33;;;;;;;11.03;4.67;;;;;8.30;101213.00;;;;9977119;29;20772;-80
2024/03/16 06:57:34;;;;;;;15.40;5.23;;;;;8.50;101235.00;;;;9989929;29;20281;-81
2024/03/16 07:02:36;;;;;;;10.67;5.00;;;;;9.00;101261.00;;;;9972476;29;20237;-80
2024/03/16 07:07:37;;;;;;;15.30;4.00;;;;;8.60;101256.00;;;;9955492;29;20318;-80
2024/03/16 07:12:38;;;;;;;7.40;2.23;;;;;8.50;101271.00;;;;9994810;29;20324;-80
2024/03/16 07:17:40;;;;;;;4.30;1.70;;;;;8.10;101283.00;;;;9988840;29;20242;-79
2024/03/16 07:22:41;;;;;;;2.57;1.70;;;;;8.00;101297.00;;;;9977331;29;20263;-79
2024/03/16 07:27:42;;;;;;;8.33;2.20;;;;;8.00;101308.00;;;;9948944;29;20234;-83
2024/03/16 07:32:43;;;;;;;9.03;2.03;;;;;8.20;101324.00;;;;9963749;29;20910;-82
2024/03/16 07:37:45;;;;;;;12.60;2.23;;;;;8.30;101331.00;;;;9952656;29;20233;-81
2024/03/16 07:42:46;;;;;;;3.77;1.30;;;;;8.50;101336.00;;;;9963381;29;20229;-83
2024/03/16 07:47:47;;;;;;;5.37;1.30;;;;;8.50;101336.00;;;;9965323;29;20316;-83
2024/03/16 07:52:48;;;;;;;10.80;1.47;;;;;8.60;101346.00;;;;9966551;29;20235;-82
2024/03/16 07:57:49;;;;;;;8.30;1.20;;;;;9.00;101358.00;;;;9955236;29;20315;-82
2024/03/16 08:02:51;;;;;;;4.93;1.70;;;;;9.00;101363.00;;;;9954994;29;20233;-82
2024/03/16 08:07:52;;;;;;;3.80;0.93;;;;;9.00;101372.00;;;;9955539;29;20925;-82
2024/03/16 08:12:53;;;;;;;3.70;1.10;;;;;8.90;101378.00;;;;9987677;29;20221;-81
2024/03/16 08:17:56;;;;;;;6.10;1.50;;;;;8.90;101388.00;;;;9987428;29;20871;-82
2024/03/16 08:22:58;;;;;;;4.87;1.00;;;;;8.90;101388.00;;;;9955385;29;20592;-82
2024/03/16 08:27:59;;;;;;;5.07;1.23;;;;;9.00;101408.00;;;;10023268;29;20225;-81
2024/03/16 08:33:01;;;;;;;4.43;0.93;;;;;9.20;101406.00;;;;10015270;29;20234;-82
2024/03/16 08:38:03;;;;;;;6.80;1.10;;;;;9.40;101411.00;;;;9972211;29;20351;-82
2024/03/16 08:43:04;;;;;;;4.60;1.10;;;;;9.60;101414.00;;;;9975622;29;20230;-81
2024/03/16 08:48:06;;;;;;;6.47;2.03;;;;;10.40;101416.00;;;;9957008;29;20244;-81
2024/03/16 08:53:07;;;;;;;4.30;1.37;;;;;10.30;101417.00;;;;9978438;29;20222;-81
2024/03/16 08:58:08;;;;;;;5.50;1.40;;;;;10.10;101445.00;;;;9967544;29;20309;-82
2024/03/16 09:03:09;;;;;;;6.23;1.20;;;;;10.20;101445.00;;;;9964816;29;20236;-82
2024/03/16 09:08:11;;;;;;;10.43;2.00;;;;;10.10;101450.00;;;;9961189;29;20261;-82
2024/03/16 09:13:12;;;;;;;4.20;1.03;;;;;9.50;101472.00;;;;9980350;29;20312;-81
2024/03/16 09:18:13;;;;;;;8.90;1.70;;;;;9.20;101486.00;;;;9971211;29;20770;-82
2024/03/16 09:23:15;;;;;;;2.07;0.73;;;;;9.50;101485.00;;;;9982944;29;20673;-82
2024/03/16 09:28:16;;;;;;;2.33;1.10;;;;;9.60;101487.00;;;;9966145;29;20321;-82
2024/03/16 09:33:17;;;;;;;1.77;0.80;;;;;9.50;101500.00;;;;9963451;29;20308;-83
2024/03/16 09:38:19;;;;;;;3.63;1.00;;;;;9.60;101496.00;;;;9969141;29;20232;-82
2024/03/16 09:43:20;;;;;;;6.13;1.10;;;;;10.10;101501.00;;;;9970190;29;20248;-81
2024/03/16 09:48:21;;;;;;;7.17;1.60;;;;;10.40;101500.00;;;;9972588;29;20665;-81
2024/03/16 09:53:30;;;;;;;2.17;0.87;;;;;10.70;101513.00;;;;9966509;29;20237;-80
2024/03/16 09:58:32;;;;;;;4.63;1.50;;;;;11.00;101528.00;;;;9996007;29;20268;-81
2024/03/16 10:03:34;;;;;;;1.13;0.70;;;;;11.20;101540.00;;;;9976407;29;20241;-81
2024/03/16 10:08:38;;;;;;;3.00;0.87;;;;;11.40;101538.00;;;;9971459;29;20252;-80
2024/03/16 10:13:54;;;;;;;4.53;0.97;;;;;11.50;101550.00;;;;9985089;29;20819;-81
2024/03/16 10:18:55;;;;;;;4.57;0.80;;;;;11.90;101554.00;;;;9952087;29;20308;-81
2024/03/16 10:23:58;;;;;;;3.23;0.80;;;;;11.90;101558.00;;;;9997570;29;20242;-81
2024/03/16 10:29:07;;;;;;;1.77;0.80;;;;;11.30;101565.00;;;;9972701;29;20727;-80
2024/03/16 10:34:10;;;;;;;3.20;0.90;;;;;11.30;101589.00;;;;9970735;29;20250;-80
2024/03/16 10:39:16;;;;;;;4.10;0.80;;;;;11.10;101593.00;;;;9952971;29;20321;-80
2024/03/16 10:44:17;;;;;;;1.37;0.70;;;;;11.10;101596.00;;;;9946389;29;20286;-81
2024/03/16 10:49:19;;;;;;;7.63;1.00;;;;;11.20;101614.00;;;;9974113;29;20328;-81
2024/03/16 10:54:20;;;;;;;5.30;1.50;;;;;11.50;101621.00;;;;9979335;29;20234;-80
2024/03/16 10:59:33;;;;;;;3.60;1.07;;;;;11.60;101621.00;;;;9977790;29;20237;-78
2024/03/16 11:04:50;;;;;;;4.03;1.10;;;;;11.70;101629.00;;;;9983497;29;20234;-79
2024/03/16 11:09:51;;;;;;;7.80;1.30;;;;;11.70;101638.00;;;;9999927;29;20248;-77
2024/03/16 11:15:32;;;;;;;1.90;0.87;;;;;11.50;101637.00;;;;9963131;29;20312;-78
2024/03/16 11:20:34;;;;;;;4.33;1.07;;;;;11.20;101657.00;;;;9971024;29;20955;-78
2024/03/16 11:25:35;;;;;;;3.27;1.17;;;;;11.10;101658.00;;;;9969900;29;20240;-78
2024/03/16 11:30:37;;;;;;;3.53;0.90;;;;;11.00;101659.00;;;;9967654;29;20272;-77
2024/03/16 11:35:38;;;;;;;3.23;1.03;;;;;10.90;101667.00;;;;9973188;29;20243;-79
2024/03/16 11:40:41;;;;;;;2.50;0.93;;;;;10.60;101668.00;;;;9962731;29;20237;-79
2024/03/16 11:45:47;;;;;;;2.37;0.90;;;;;10.40;101682.00;;;;9959106;29;20233;-78
2024/03/16 11:50:50;;;;;;;2.43;1.60;;;;;10.50;101675.00;;;;9975029;29;20241;-77
2024/03/16 11:55:51;;;;;;;3.13;1.73;;;;;10.80;101677.00;;;;9961169;29;20850;-78
2024/03/16 12:00:54;;;;;;;3.83;1.07;;;;;11.70;101672.00;;;;9991839;29;20275;-79
2024/03/16 12:05:57;;;;;;;3.87;1.80;;;;;12.30;101666.00;;;;9960092;29;20234;-79
2024/03/16 12:10:58;;;;;;;2.00;1.23;;;;;13.10;101658.00;;;;9979083;29;20324;-80
2024/03/16 12:15:59;;;;;;;5.27;1.40;;;;;13.30;101666.00;;;;9959301;29;20291;-81
2024/03/16 12:21:04;;;;;;;3.13;1.20;;;;;12.70;101668.00;;;;9967190;29;20237;-81
2024/03/16 12:26:09;;;;;;;2.57;1.30;;;;;12.00;101677.00;;;;9970876;29;20225;-79
2024/03/16 12:31:10;;;;;;;5.17;1.30;;;;;11.30;101681.00;;;;9972465;29;20260;-82
2024/03/16 12:36:11;;;;;;;2.07;1.20;;;;;11.10;101684.00;;;;9951597;29;20226;-80
2024/03/16 12:41:13;;;;;;;2.97;1.60;;;;;11.10;101684.00;;;;9964603;29;20331;-80
2024/03/16 12:46:14;;;;;;;2.63;1.63;;;;;11.70;101691.00;;;;9962402;29;20236;-81
2024/03/16 12:51:17;;;;;;;2.37;1.30;;;;;12.10;101694.00;;;;9977274;29;20313;-82
2024/03/16 12:56:18;;;;;;;1.60;1.20;;;;;12.50;101693.00;;;;9956683;29;20237;-80
2024/03/16 13:01:23;;;;;;;5.13;1.40;;;;;12.60;101701.00;;;;9972822;29;20317;-81
2024/03/16 13:06:25;;;;;;;4.17;1.70;;;;;12.50;101688.00;;;;9959076;29;20321;-79
2024/03/16 13:11:28;;;;;;;3.70;1.73;;;;;12.30;101703.00;;;;9961014;29;20257;-81
2024/03/16 13:16:29;;;;;;;7.87;1.87;;;;;12.00;101691.00;;;;9962593;29;20347;-81
2024/03/16 13:21:31;;;;;;;5.73;2.40;;;;;11.60;101702.00;;;;9988085;29;20316;-78
2024/03/16 13:26:33;;;;;;;2.03;1.83;;;;;11.60;101696.00;;;;9948903;29;20601;-78
2024/03/16 13:31:35;;;;;;;5.13;2.10;;;;;11.60;101697.00;;;;9959117;29;21021;-78
2024/03/16 13:36:37;;;;;;;6.50;2.40;;;;;11.30;101691.00;;;;9958556;29;20237;-79
2024/03/16 13:41:38;;;;;;;7.03;2.63;;;;;11.40;101701.00;;;;9958891;29;20911;-77
2024/03/16 13:46:39;;;;;;;5.00;2.87;;;;;11.60;101702.00;;;;9946616;29;20263;-77
2024/03/16 13:51:41;;;;;;;3.43;2.30;;;;;12.00;101705.00;;;;9952398;29;20240;-77
2024/03/16 13:56:42;;;;;;;4.63;2.70;;;;;11.80;101694.00;;;;9981853;29;20233;-77
2024/03/16 14:01:43;;;;;;;3.93;2.50;;;;;11.80;101707.00;;;;9951364;29;20225;-77
2024/03/16 14:06:44;;;;;;;3.20;2.70;;;;;12.60;101702.00;;;;9978427;29;20229;-77
2024/03/16 14:11:46;;;;;;;6.00;2.63;;;;;13.10;101700.00;;;;9979716;29;20320;-78
2024/03/16 14:16:49;;;;;;;6.37;3.00;;;;;13.60;101693.00;;;;9976008;29;20261;-79
2024/03/16 14:21:51;;;;;;;4.50;2.87;;;;;13.50;101686.00;;;;9967803;29;20234;-79
2024/03/16 14:26:52;;;;;;;5.40;3.55;;;;;13.20;101696.00;;;;9962132;29;20237;-78
2024/03/16 14:31:53;;;;;;;10.45;3.70;;;;;13.00;101693.00;;;;9987774;29;20237;-81
2024/03/16 14:36:54;;;;;;;5.80;3.30;;;;;13.20;101682.00;;;;9984160;29;20376;-81
2024/03/16 14:41:56;;;;;;;4.60;3.30;;;;;13.50;101700.00;;;;9963051;29;20729;-81
2024/03/16 14:47:00;;;;;;;6.50;3.35;;;;;13.70;101702.00;;;;9962230;29;20234;-81
2024/03/16 14:52:02;;;;;;;3.33;1.45;;;;;13.10;101699.00;;;;9973282;29;20316;-81
2024/03/16 14:57:03;;;;;;;4.18;2.05;;;;;13.10;101705.00;;;;9954744;29;20264;-80
2024/03/16 15:02:05;;;;;;;5.40;2.40;;;;;13.30;101695.00;;;;9976712;29;20320;-81
2024/03/16 15:07:06;;;;;;;2.28;1.45;;;;;13.60;101684.00;;;;9974912;29;20697;-81
2024/03/16 15:12:07;;;;;;;3.42;1.67;;;;;13.80;101692.00;;;;9961108;29;20234;-81
2024/03/16 15:17:10;;;;;;;3.53;1.10;;;;;13.40;101696.00;;;;9971565;29;20313;-81
2024/03/16 15:22:11;;;;;;;4.05;1.08;;;;;13.20;101710.00;;;;9967155;29;20261;-81
2024/03/16 15:32:31;;;;;;;5.40;1.38;;;;;12.80;101707.00;;;;9978850;29;20320;-81
2024/03/16 15:37:32;;;;;;;4.95;1.00;;;;;12.60;101715.00;;;;9972177;29;20328;-80
2024/03/16 15:42:34;;;;;;;3.03;1.47;;;;;12.60;101719.00;;;;9979764;29;20731;-81
2024/03/16 15:47:35;;;;;;;3.10;1.20;;;;;12.50;101704.00;;;;9968502;29;20333;-81
2024/03/16 15:52:36;;;;;;;3.83;0.90;;;;;12.30;101712.00;;;;9979415;29;20233;-81
2024/03/16 15:57:37;;;;;;;3.00;0.70;;;;;12.30;101696.00;;;;9966776;29;20244;-81
2024/03/16 16:02:39;;;;;;;6.70;1.90;;;;;12.20;101707.00;;;;9947011;29;20236;-81
2024/03/16 16:07:40;;;;;;;4.37;1.30;;;;;12.10;101710.00;;;;9976069;29;20938;-81
2024/03/16 16:12:43;;;;;;;2.30;1.10;;;;;11.90;101705.00;;;;9963885;29;20248;-81
2024/03/16 16:17:46;;;;;;;1.63;0.90;;;;;11.60;101704.00;;;;9949451;29;20249;-82
2024/03/16 16:22:49;;;;;;;1.33;0.67;;;;;11.40;101714.00;;;;9949431;29;20378;-81
2024/03/16 16:27:50;;;;;;;4.13;1.03;;;;;11.30;101704.00;;;;9982445;29;20233;-82
2024/03/16 16:32:51;;;;;;;3.63;1.00;;;;;11.20;101709.00;;;;9967100;29;20833;-81
2024/03/16 16:37:53;;;;;;;3.80;1.20;;;;;11.10;101717.00;;;;9984964;29;20366;-82
2024/03/16 16:42:54;;;;;;;4.20;1.37;;;;;11.00;101727.00;;;;9959687;29;20315;-81
2024/03/16 16:47:55;;;;;;;2.93;1.20;;;;;10.90;101732.00;;;;9970817;29;20321;-81
2024/03/16 16:52:56;;;;;;;2.37;1.17;;;;;10.90;101721.00;;;;9975328;29;20222;-83
2024/03/16 16:57:57;;;;;;;3.03;1.43;;;;;10.90;101736.00;;;;10003292;29;20218;-83
2024/03/16 17:02:59;;;;;;;3.57;1.20;;;;;10.90;101743.00;;;;9983896;29;20265;-82
2024/03/16 17:08:00;;;;;;;1.33;0.70;;;;;10.80;101756.00;;;;9975230;29;20306;-82
2024/03/16 17:13:01;;;;;;;4.23;1.10;;;;;10.60;101764.00;;;;9981983;29;20366;-82
2024/03/16 17:18:04;;;;;;;1.93;1.03;;;;;10.40;101767.00;;;;9979144;29;20290;-81
2024/03/16 17:23:05;;;;;;;1.87;1.03;;;;;10.30;101767.00;;;;9963790;29;20692;-82
2024/03/16 17:28:06;;;;;;;3.30;1.10;;;;;10.20;101784.00;;;;9974286;29;20233;-82
2024/03/16 17:33:07;;;;;;;2.20;1.10;;;;;10.10;101785.00;;;;9980836;29;20248;-82
2024/03/16 17:38:10;;;;;;;3.07;0.90;;;;;10.00;101786.00;;;;9972880;29;20960;-82
2024/03/16 17:43:11;;;;;;;4.80;1.07;;;;;9.90;101786.00;;;;9990714;29;20226;-81
2024/03/16 17:48:12;;;;;;;2.93;0.93;;;;;9.70;101780.00;;;;9985035;29;20239;-81
2024/03/16 17:53:13;;;;;;;2.53;0.70;;;;;9.60;101786.00;;;;9964117;29;20227;-81
2024/03/16 17:58:15;;;;;;;3.67;1.00;;;;;9.50;101776.00;;;;9968194;29;20240;-78
2024/03/16 18:03:16;;;;;;;3.77;1.57;;;;;9.50;101771.00;;;;9977662;29;20244;-78
2024/03/16 18:08:17;;;;;;;2.43;0.80;;;;;9.40;101773.00;;;;9949958;29;20230;-79
2024/03/16 18:13:18;;;;;;;2.23;1.10;;;;;9.40;101766.00;;;;9986751;29;20316;-80
2024/03/16 18:18:20;;;;;;;4.17;1.30;;;;;9.30;101767.00;;;;9977985;29;20871;-78
2024/03/16 18:23:21;;;;;;;2.30;1.13;;;;;9.20;101769.00;;;;9967352;29;20305;-78
2024/03/16 18:28:25;;;;;;;1.63;1.03;;;;;9.10;101766.00;;;;9960784;29;20912;-78
2024/03/16 18:33:27;;;;;;;1.73;1.07;;;;;9.00;101774.00;;;;9996786;29;20236;-78
2024/03/16 18:38:29;;;;;;;5.10;2.23;;;;;8.80;101781.00;;;;9968039;29;20257;-80
2024/03/16 18:43:30;;;;;;;6.07;2.10;;;;;8.70;101768.00;;;;9963938;29;20237;-78
2024/03/16 18:48:32;;;;;;;5.43;1.60;;;;;8.50;101766.00;;;;9981358;29;20264;-79
2024/03/16 18:53:33;;;;;;;3.97;1.30;;;;;8.50;101749.00;;;;9978957;29;20265;-78
2024/03/16 18:58:34;;;;;;;3.33;1.17;;;;;8.40;101762.00;;;;9987078;29;20238;-78
2024/03/16 19:03:36;;;;;;;4.47;1.63;;;;;8.40;101763.00;;;;9974267;29;20267;-78
2024/03/16 19:08:39;;;;;;;3.90;1.47;;;;;8.30;101762.00;;;;9964257;29;20247;-80
2024/03/16 19:13:40;;;;;;;4.97;2.40;;;;;8.30;101761.00;;;;9941771;29;20271;-80
2024/03/16 19:18:41;;;;;;;4.67;2.80;;;;;8.20;101764.00;;;;9960098;29;20238;-81
2024/03/16 19:23:42;;;;;;;5.23;2.20;;;;;8.10;101784.00;;;;9975060;29;20257;-82
2024/03/16 19:28:43;;;;;;;6.27;3.27;;;;;8.00;101797.00;;;;9966090;29;20260;-80
2024/03/16 19:33:44;;;;;;;9.50;4.97;;;;;7.90;101796.00;;;;9948966;29;20301;-81
2024/03/16 19:38:46;;;;;;;10.47;4.40;;;;;7.90;101809.00;;;;9964984;29;20236;-79
2024/03/16 19:43:47;;;;;;;8.27;4.30;;;;;7.90;101805.00;;;;9998005;29;20229;-83
2024/03/16 19:48:48;;;;;;;4.43;3.40;;;;;7.90;101804.00;;;;9968658;29;20320;-80
2024/03/16 19:53:49;;;;;;;8.40;4.20;;;;;7.90;101801.00;;;;9968593;29;20244;-81
2024/03/16 19:58:50;;;;;;;7.00;3.87;;;;;7.90;101802.00;;;;9966913;29;20937;-79
2024/03/16 20:03:51;;;;;;;7.10;3.77;;;;;7.80;101798.00;;;;9975074;29;20575;-81
2024/03/16 20:08:52;;;;;;;6.00;4.10;;;;;7.80;101799.00;;;;9965124;29;20275;-81
2024/03/16 20:13:54;;;;;;;7.00;3.97;;;;;7.70;101798.00;;;;9966155;29;20868;-80
2024/03/16 20:18:56;;;;;;;6.93;3.77;;;;;7.70;101794.00;;;;9945399;29;20292;-78
2024/03/16 20:23:57;;;;;;;10.53;4.50;;;;;7.60;101809.00;;;;9975235;29;20237;-79
2024/03/16 20:29:00;;;;;;;9.77;5.30;;;;;7.60;101804.00;;;;9979431;29;20257;-79
2024/03/16 20:34:02;;;;;;;7.00;4.50;;;;;7.50;101803.00;;;;9968842;29;20321;-78
2024/03/16 20:39:04;;;;;;;6.90;4.53;;;;;7.40;101788.00;;;;9970375;29;20233;-78
2024/03/16 20:44:06;;;;;;;14.83;7.80;;;;;7.40;101802.00;;;;9966266;29;20232;-77
2024/03/16 20:49:08;;;;;;;10.00;5.00;;;;;7.30;101798.00;;;;9947517;29;20325;-79
2024/03/16 20:54:10;;;;;;;8.47;5.60;;;;;7.30;101794.00;;;;9989969;29;20252;-79
2024/03/16 20:59:11;;;;;;;11.27;6.37;;;;;7.30;101801.00;;;;9970366;29;20230;-77
2024/03/16 21:04:12;;;;;;;12.43;6.57;;;;;7.30;101810.00;;;;9952753;29;20273;-78
2024/03/16 21:09:14;;;;;;;12.07;6.30;;;;;7.30;101802.00;;;;9979706;29;20946;-78
2024/03/16 21:14:15;;;;;;;12.97;6.60;;;;;7.20;101811.00;;;;9984977;29;20233;-78
2024/03/16 21:19:16;;;;;;;10.33;4.37;;;;;7.30;101807.00;;;;9976700;29;20237;-78
2024/03/16 21:24:21;;;;;;;11.63;5.13;;;;;7.20;101805.00;;;;9980499;29;20326;-77
2024/03/16 21:29:22;;;;;;;8.63;5.57;;;;;7.20;101797.00;;;;9961197;29;20350;-82
2024/03/16 21:34:24;;;;;;;10.70;5.37;;;;;7.20;101803.00;;;;9977827;29;20328;-82
2024/03/16 21:39:25;;;;;;;6.87;4.07;;;;;7.20;101804.00;;;;9986309;29;20234;-81
2024/03/16 21:44:27;;;;;;;7.70;3.90;;;;;7.30;101799.00;;;;9974836;29;20230;-82
2024/03/16 21:49:28;;;;;;;7.17;3.73;;;;;7.40;101798.00;;;;9951221;29;20225;-81
2024/03/16 21:54:35;;;;;;;7.20;3.70;;;;;7.50;101803.00;;;;9966988;29;20234;-80
2024/03/16 21:59:37;;;;;;;4.40;3.60;;;;;7.50;101796.00;;;;9979946;29;20333;-81
2024/03/16 22:04:41;;;;;;;5.07;3.53;;;;;7.60;101801.00;;;;9993901;29;20238;-81
2024/03/16 22:09:43;;;;;;;4.87;3.23;;;;;7.70;101794.00;;;;9962062;29;20239;-81
2024/03/16 22:14:47;;;;;;;5.83;3.00;;;;;7.70;101802.00;;;;9974709;29;20229;-82
2024/03/16 22:19:48;;;;;;;5.83;3.90;;;;;7.80;101797.00;;;;9974645;29;20242;-81
2024/03/16 22:24:50;;;;;;;10.13;5.20;;;;;7.70;101793.00;;;;9970549;29;20225;-81
2024/03/16 22:29:51;;;;;;;7.23;3.27;;;;;7.80;101781.00;;;;9997506;29;20230;-81
2024/03/16 22:34:52;;;;;;;4.33;3.20;;;;;7.80;101775.00;;;;9997970;29;20234;-81
2024/03/16 22:39:54;;;;;;;4.13;2.80;;;;;7.80;101780.00;;;;9960856;29;20304;-82
2024/03/16 22:44:55;;;;;;;6.50;4.00;;;;;7.70;101777.00;;;;9963776;29;20230;-82
2024/03/16 22:49:56;;;;;;;5.33;3.73;;;;;7.60;101768.00;;;;9968694;29;20324;-82
2024/03/16 22:54:57;;;;;;;6.43;3.50;;;;;7.60;101774.00;;;;9960798;29;20596;-81
2024/03/16 23:00:01;;;;;;;5.17;3.43;;;;;7.50;101767.00;;;;9946174;29;20242;-80
2024/03/16 23:05:03;;;;;;;6.37;3.30;;;;;7.50;101758.00;;;;9977441;29;20272;-82
2024/03/16 23:10:04;;;;;;;4.73;3.30;;;;;7.60;101761.00;;;;9981154;29;20314;-81
2024/03/16 23:15:08;;;;;;;5.50;4.50;;;;;7.60;101755.00;;;;9979791;29;20256;-83
2024/03/16 23:20:14;;;;;;;7.87;5.53;;;;;7.60;101760.00;;;;9951866;29;20228;-82
2024/03/16 23:25:15;;;;;;;8.07;4.97;;;;;7.60;101747.00;;;;9955010;29;20229;-82
2024/03/16 23:30:16;;;;;;;9.53;5.33;;;;;7.60;101759.00;;;;9955008;29;20244;-82
2024/03/16 23:35:18;;;;;;;4.20;3.77;;;;;7.60;101746.00;;;;9963005;29;20632;-81
2024/03/16 23:40:19;;;;;;;6.40;4.27;;;;;7.60;101741.00;;;;9976702;29;20233;-83
2024/03/16 23:45:21;;;;;;;7.77;4.90;;;;;7.50;101742.00;;;;9946907;29;20241;-82
2024/03/16 23:50:22;;;;;;;7.03;5.30;;;;;7.60;101736.00;;;;9976879;29;20464;-80
2024/03/16 23:55:23;;;;;;;9.27;6.40;;;;;7.50;101730.00;;;;9978541;29;20237;-82
